• Join FlightAware (Why Join?)
  • Login
  • US Flag 
03:21PM EST


 

Airport Tracker/Info


-or-


 

Live Flight TrackerFlight Track Log ✈ DAL6234 ✈ 16-Apr-2013 ✈ KLGA - KSYR

Flight Track Log - Related Links

Times and Time Zones

All times are in EDT time to prevent confusion due to time zone crossing. See the DAL6234 flight status page for this flight to view local times or setup timezone preferences in your user account.

Time Position Orientation Groundspeed Altitude Reporting Facility
EDT Latitude Longitude Course Direction KTS MPH feet Rate Location/Type
03:49PM 40.7667 -73.8500 159° South 139 160 1,200  Level New York TRACON
03:50PM 40.7333 -73.8333 159° South 181 208 2,800 2,105 Climbing New York TRACON
03:51PM 40.7667 -73.7667 57° Northeast 250 288 5,200 1,830 Climbing New York TRACON
03:53PM 40.9061 -73.7994 350° North 256 295 8,900 1,642 Climbing New York Center
03:54PM 40.9714 -73.8572 326° Northwest 256 295 10,700 1,537 Climbing New York Center
03:55PM 41.0133 -73.9253 309° West 262 302 12,000 1,983 Climbing New York Center
03:56PM 41.0561 -74.0344 297° West 290 334 14,700 1,983 Climbing New York Center
03:57PM 41.0883 -74.1433 291° West 311 358 16,000 661 Climbing New York Center
03:58PM 41.1247 -74.2528 294° West 324 373 16,000 -50 Level New York Center
03:59PM 41.1592 -74.3592 293° West 324 373 15,900 -50 Descending New York Center
04:00PM 41.1894 -74.4544 293° West 319 367 15,900 50 Level New York Center
04:01PM 41.2256 -74.5642 294° West 313 360 16,000 353 Climbing New York Center
04:02PM 41.2708 -74.6467 306° West 308 354 16,600 1,059 Climbing New York Center
04:03PM 41.3342 -74.7497 309° West 325 374 18,100 1,488 Climbing New York Center
04:04PM 41.3892 -74.8414 309° West 342 394 19,600 1,714 Climbing New York Center
04:05PM 41.4544 -74.9422 311° West 349 402 21,500 1,200 Climbing New York Center
04:06PM 41.5194 -75.0461 310° West 349 402 22,000 248 Climbing New York Center
04:07PM 41.5783 -75.1442 309° West 349 402 22,000  Level New York Center
04:08PM 41.6372 -75.2397 310° West 344 396 22,000  Level New York Center
04:09PM 41.6958 -75.3408 308° West 344 396 22,000  Level New York Center
04:10PM 41.7564 -75.4422 309° West 344 396 22,000  Level New York Center
04:11PM 41.8169 -75.5467 308° West 344 396 22,000  Level New York Center
04:12PM 41.8772 -75.6511 308° West 350 403 22,000 -458 Level New York Center
04:13PM 41.9375 -75.7533 308° West 355 409 21,100 -984 Descending New York Center
04:14PM 41.9978 -75.8556 308° West 355 409 20,000 -1,100 Descending New York Center
04:15PM 42.0461 -75.9431 307° West 344 396 18,900 -1,109 Descending New York Center
04:16PM 42.1022 -76.0394 308° West 320 368 17,800 -1,770 Descending New York Center
04:17PM 42.1650 -76.1258 314° West 304 350 15,300 -2,521 Descending New York Center
04:18PM 42.2583 -76.1278 359° North 283 326 12,800 -2,364 Descending New York Center
04:19PM 42.3197 -76.1217 North 352 405 11,400 -1,091 Descending Boston Center
04:20PM 42.4097 -76.1100 North 316 364 11,000 -200 Descending Boston Center
04:21PM 42.4894 -76.0981 North 284 327 11,000 -49 Level Boston Center
04:22PM 42.5772 -76.0889 North 316 364 10,900 -678 Descending Boston Center
04:23PM 42.6528 -76.0736 North 299 344 9,700 -1,574 Descending Boston Center
04:24PM 42.7450 -76.0622 North 282 325 7,700 -1,701 Descending Boston Center
04:25PM 42.8203 -76.0553 North 270 311 6,100 -1,289 Descending Boston Center
04:26PM 42.8956 -76.0456 North 267 307 5,100 -992 Descending Boston Center
04:27PM 42.9708 -76.0442 North 276 318 4,100 -1,150 Descending Boston Center
04:28PM 43.0408 -76.0028 23° Northeast 279 321 2,800 -984 Descending Boston Center
04:29PM 43.1017 -75.9892 North 197 227 2,100 -738 Descending Boston Center
04:30PM 43.1106 -76.0411 283° West 106 122 1,300 -800 Descending Boston Center